sensor_id;sensor_type;location;lat;lon;timestamp;temperature;humidity
8910;DHT22;4490;49.072;8.804;2024-03-02T00:00:09;7.40;99.90
8910;DHT22;4490;49.072;8.804;2024-03-02T00:02:44;7.40;99.90
8910;DHT22;4490;49.072;8.804;2024-03-02T00:05:18;7.50;99.90
8910;DHT22;4490;49.072;8.804;2024-03-02T00:07:46;7.50;99.90
8910;DHT22;4490;49.072;8.804;2024-03-02T00:10:16;7.50;99.90
8910;DHT22;4490;49.072;8.804;2024-03-02T00:12:47;7.50;99.90
8910;DHT22;4490;49.072;8.804;2024-03-02T00:18:05;7.50;99.90
8910;DHT22;4490;49.072;8.804;2024-03-02T00:20:33;7.40;99.90
8910;DHT22;4490;49.072;8.804;2024-03-02T00:23:06;7.40;99.90
8910;DHT22;4490;49.072;8.804;2024-03-02T00:25:49;7.40;99.90
8910;DHT22;4490;49.072;8.804;2024-03-02T00:28:40;7.40;99.90
8910;DHT22;4490;49.072;8.804;2024-03-02T00:31:09;7.40;99.90
8910;DHT22;4490;49.072;8.804;2024-03-02T00:33:40;7.40;99.90
8910;DHT22;4490;49.072;8.804;2024-03-02T00:36:07;7.40;99.90
8910;DHT22;4490;49.072;8.804;2024-03-02T00:38:34;7.40;99.90
8910;DHT22;4490;49.072;8.804;2024-03-02T00:41:07;7.40;99.90
8910;DHT22;4490;49.072;8.804;2024-03-02T00:44:00;7.40;99.90
8910;DHT22;4490;49.072;8.804;2024-03-02T00:46:28;7.40;99.90
8910;DHT22;4490;49.072;8.804;2024-03-02T00:48:57;7.40;99.90
8910;DHT22;4490;49.072;8.804;2024-03-02T00:51:25;7.40;99.90
8910;DHT22;4490;49.072;8.804;2024-03-02T00:53:52;7.40;99.90
8910;DHT22;4490;49.072;8.804;2024-03-02T00:56:21;7.40;99.90
8910;DHT22;4490;49.072;8.804;2024-03-02T00:58:46;7.50;99.90
8910;DHT22;4490;49.072;8.804;2024-03-02T01:01:12;7.50;99.90
8910;DHT22;4490;49.072;8.804;2024-03-02T01:03:37;7.50;99.90
8910;DHT22;4490;49.072;8.804;2024-03-02T01:06:04;7.50;99.90
8910;DHT22;4490;49.072;8.804;2024-03-02T01:08:30;7.50;99.90
8910;DHT22;4490;49.072;8.804;2024-03-02T01:10:56;7.50;99.90
8910;DHT22;4490;49.072;8.804;2024-03-02T01:13:24;7.40;99.90
8910;DHT22;4490;49.072;8.804;2024-03-02T01:15:50;7.40;99.90
8910;DHT22;4490;49.072;8.804;2024-03-02T01:18:16;7.40;99.90
8910;DHT22;4490;49.072;8.804;2024-03-02T01:20:41;7.40;99.90
8910;DHT22;4490;49.072;8.804;2024-03-02T01:23:07;7.30;99.90
8910;DHT22;4490;49.072;8.804;2024-03-02T01:25:33;7.30;99.90
8910;DHT22;4490;49.072;8.804;2024-03-02T01:27:58;7.30;99.90
8910;DHT22;4490;49.072;8.804;2024-03-02T01:30:24;7.30;99.90
8910;DHT22;4490;49.072;8.804;2024-03-02T01:32:49;7.40;99.90
8910;DHT22;4490;49.072;8.804;2024-03-02T01:35:15;7.40;99.90
8910;DHT22;4490;49.072;8.804;2024-03-02T01:37:41;7.40;99.90
8910;DHT22;4490;49.072;8.804;2024-03-02T01:40:07;7.40;99.90
8910;DHT22;4490;49.072;8.804;2024-03-02T01:42:38;7.40;99.90
8910;DHT22;4490;49.072;8.804;2024-03-02T01:45:08;7.40;99.90
8910;DHT22;4490;49.072;8.804;2024-03-02T01:47:34;7.40;99.90
8910;DHT22;4490;49.072;8.804;2024-03-02T01:50:00;7.40;99.90
8910;DHT22;4490;49.072;8.804;2024-03-02T01:52:27;7.30;99.90
8910;DHT22;4490;49.072;8.804;2024-03-02T01:54:53;7.30;99.90
8910;DHT22;4490;49.072;8.804;2024-03-02T01:57:19;7.20;99.90
8910;DHT22;4490;49.072;8.804;2024-03-02T01:59:45;7.10;99.90
8910;DHT22;4490;49.072;8.804;2024-03-02T02:02:13;7.10;99.90
8910;DHT22;4490;49.072;8.804;2024-03-02T02:04:39;7.00;99.90
8910;DHT22;4490;49.072;8.804;2024-03-02T02:07:04;7.00;99.90
8910;DHT22;4490;49.072;8.804;2024-03-02T02:09:30;7.00;99.90
8910;DHT22;4490;49.072;8.804;2024-03-02T02:11:55;7.00;99.90
8910;DHT22;4490;49.072;8.804;2024-03-02T02:14:21;7.00;99.90
8910;DHT22;4490;49.072;8.804;2024-03-02T02:16:47;7.00;99.90
8910;DHT22;4490;49.072;8.804;2024-03-02T02:19:12;7.00;99.90
8910;DHT22;4490;49.072;8.804;2024-03-02T02:21:41;7.00;99.90
8910;DHT22;4490;49.072;8.804;2024-03-02T02:24:07;7.00;99.90
8910;DHT22;4490;49.072;8.804;2024-03-02T02:26:32;7.10;99.90
8910;DHT22;4490;49.072;8.804;2024-03-02T02:28:58;7.10;99.90
8910;DHT22;4490;49.072;8.804;2024-03-02T02:31:24;7.10;99.90
8910;DHT22;4490;49.072;8.804;2024-03-02T02:33:49;7.10;99.90
8910;DHT22;4490;49.072;8.804;2024-03-02T02:36:15;7.10;99.90
8910;DHT22;4490;49.072;8.804;2024-03-02T02:38:44;7.00;99.90
8910;DHT22;4490;49.072;8.804;2024-03-02T02:41:12;7.00;99.90
8910;DHT22;4490;49.072;8.804;2024-03-02T02:43:38;7.00;99.90
8910;DHT22;4490;49.072;8.804;2024-03-02T02:46:05;7.00;99.90
8910;DHT22;4490;49.072;8.804;2024-03-02T02:48:30;7.00;99.90
8910;DHT22;4490;49.072;8.804;2024-03-02T02:50:56;6.90;99.90
8910;DHT22;4490;49.072;8.804;2024-03-02T02:53:21;6.90;99.90
8910;DHT22;4490;49.072;8.804;2024-03-02T02:55:47;6.90;99.90
8910;DHT22;4490;49.072;8.804;2024-03-02T02:58:13;6.90;99.90
8910;DHT22;4490;49.072;8.804;2024-03-02T03:00:38;6.90;99.90
8910;DHT22;4490;49.072;8.804;2024-03-02T03:03:05;6.80;99.90
8910;DHT22;4490;49.072;8.804;2024-03-02T03:05:30;6.80;99.90
8910;DHT22;4490;49.072;8.804;2024-03-02T03:07:56;6.80;99.90
8910;DHT22;4490;49.072;8.804;2024-03-02T03:10:22;6.80;99.90
8910;DHT22;4490;49.072;8.804;2024-03-02T03:12:49;6.80;99.90
8910;DHT22;4490;49.072;8.804;2024-03-02T03:15:15;6.80;99.90
8910;DHT22;4490;49.072;8.804;2024-03-02T03:17:41;6.90;99.90
8910;DHT22;4490;49.072;8.804;2024-03-02T03:20:08;6.90;99.90
8910;DHT22;4490;49.072;8.804;2024-03-02T03:22:37;6.90;99.90
8910;DHT22;4490;49.072;8.804;2024-03-02T03:25:03;6.90;99.90
8910;DHT22;4490;49.072;8.804;2024-03-02T03:27:29;6.90;99.90
8910;DHT22;4490;49.072;8.804;2024-03-02T03:29:54;6.90;99.90
8910;DHT22;4490;49.072;8.804;2024-03-02T03:32:20;6.90;99.90
8910;DHT22;4490;49.072;8.804;2024-03-02T03:34:46;6.90;99.90
8910;DHT22;4490;49.072;8.804;2024-03-02T03:37:13;6.90;99.90
8910;DHT22;4490;49.072;8.804;2024-03-02T03:39:38;6.90;99.90
8910;DHT22;4490;49.072;8.804;2024-03-02T03:42:04;7.00;99.90
8910;DHT22;4490;49.072;8.804;2024-03-02T03:44:30;7.00;99.90
8910;DHT22;4490;49.072;8.804;2024-03-02T03:46:56;7.00;99.90
8910;DHT22;4490;49.072;8.804;2024-03-02T03:49:21;7.00;99.90
8910;DHT22;4490;49.072;8.804;2024-03-02T03:51:47;7.00;99.90
8910;DHT22;4490;49.072;8.804;2024-03-02T03:54:13;7.00;99.90
8910;DHT22;4490;49.072;8.804;2024-03-02T03:56:38;7.10;99.90
8910;DHT22;4490;49.072;8.804;2024-03-02T03:59:04;7.10;99.90
8910;DHT22;4490;49.072;8.804;2024-03-02T04:01:30;7.10;99.90
8910;DHT22;4490;49.072;8.804;2024-03-02T04:03:57;7.10;99.90
8910;DHT22;4490;49.072;8.804;2024-03-02T04:06:23;7.10;99.90
8910;DHT22;4490;49.072;8.804;2024-03-02T04:08:48;7.10;99.90
8910;DHT22;4490;49.072;8.804;2024-03-02T04:11:14;7.10;99.90
8910;DHT22;4490;49.072;8.804;2024-03-02T04:13:40;7.10;99.90
8910;DHT22;4490;49.072;8.804;2024-03-02T04:16:05;7.10;99.90
8910;DHT22;4490;49.072;8.804;2024-03-02T04:18:31;7.10;99.90
8910;DHT22;4490;49.072;8.804;2024-03-02T04:21:00;7.20;99.90
8910;DHT22;4490;49.072;8.804;2024-03-02T04:23:28;7.20;99.90
8910;DHT22;4490;49.072;8.804;2024-03-02T04:25:54;7.20;99.90
8910;DHT22;4490;49.072;8.804;2024-03-02T04:28:20;7.20;99.90
8910;DHT22;4490;49.072;8.804;2024-03-02T04:30:45;7.20;99.90
8910;DHT22;4490;49.072;8.804;2024-03-02T04:33:11;7.20;99.90
8910;DHT22;4490;49.072;8.804;2024-03-02T04:35:37;7.20;99.90
8910;DHT22;4490;49.072;8.804;2024-03-02T04:38:03;7.20;99.90
8910;DHT22;4490;49.072;8.804;2024-03-02T04:40:28;7.20;99.90
8910;DHT22;4490;49.072;8.804;2024-03-02T04:42:54;7.20;99.90
8910;DHT22;4490;49.072;8.804;2024-03-02T04:45:20;7.30;99.90
8910;DHT22;4490;49.072;8.804;2024-03-02T04:47:45;7.30;99.90
8910;DHT22;4490;49.072;8.804;2024-03-02T04:50:11;7.30;99.90
8910;DHT22;4490;49.072;8.804;2024-03-02T04:52:37;7.30;99.90
8910;DHT22;4490;49.072;8.804;2024-03-02T04:55:03;7.30;99.90
8910;DHT22;4490;49.072;8.804;2024-03-02T04:57:36;7.40;99.90
8910;DHT22;4490;49.072;8.804;2024-03-02T05:00:02;7.40;99.90
8910;DHT22;4490;49.072;8.804;2024-03-02T05:02:32;7.40;99.90
8910;DHT22;4490;49.072;8.804;2024-03-02T05:04:57;7.40;99.90
8910;DHT22;4490;49.072;8.804;2024-03-02T05:07:23;7.40;99.90
8910;DHT22;4490;49.072;8.804;2024-03-02T05:09:49;7.40;99.90
8910;DHT22;4490;49.072;8.804;2024-03-02T05:12:14;7.40;99.90
8910;DHT22;4490;49.072;8.804;2024-03-02T05:14:58;7.50;99.90
8910;DHT22;4490;49.072;8.804;2024-03-02T05:17:24;7.50;99.90
8910;DHT22;4490;49.072;8.804;2024-03-02T05:19:49;7.50;99.90
8910;DHT22;4490;49.072;8.804;2024-03-02T05:22:15;7.50;99.90
8910;DHT22;4490;49.072;8.804;2024-03-02T05:24:40;7.40;99.90
8910;DHT22;4490;49.072;8.804;2024-03-02T05:27:06;7.50;99.90
8910;DHT22;4490;49.072;8.804;2024-03-02T05:29:32;7.40;99.90
8910;DHT22;4490;49.072;8.804;2024-03-02T05:31:58;7.40;99.90
8910;DHT22;4490;49.072;8.804;2024-03-02T05:34:24;7.40;99.90
8910;DHT22;4490;49.072;8.804;2024-03-02T05:36:49;7.40;99.90
8910;DHT22;4490;49.072;8.804;2024-03-02T05:39:15;7.40;99.90
8910;DHT22;4490;49.072;8.804;2024-03-02T05:41:41;7.40;99.90
8910;DHT22;4490;49.072;8.804;2024-03-02T05:44:06;7.40;99.90
8910;DHT22;4490;49.072;8.804;2024-03-02T05:46:32;7.40;99.90
8910;DHT22;4490;49.072;8.804;2024-03-02T05:48:59;7.40;99.90
8910;DHT22;4490;49.072;8.804;2024-03-02T05:51:25;7.40;99.90
8910;DHT22;4490;49.072;8.804;2024-03-02T05:53:50;7.40;99.90
8910;DHT22;4490;49.072;8.804;2024-03-02T05:56:16;7.40;99.90
8910;DHT22;4490;49.072;8.804;2024-03-02T05:58:42;7.40;99.90
8910;DHT22;4490;49.072;8.804;2024-03-02T06:01:26;7.40;99.90
8910;DHT22;4490;49.072;8.804;2024-03-02T06:03:57;7.40;99.90
8910;DHT22;4490;49.072;8.804;2024-03-02T06:06:24;7.30;99.90
8910;DHT22;4490;49.072;8.804;2024-03-02T06:08:50;7.30;99.90
8910;DHT22;4490;49.072;8.804;2024-03-02T06:11:15;7.20;99.90
8910;DHT22;4490;49.072;8.804;2024-03-02T06:13:41;7.20;99.90
8910;DHT22;4490;49.072;8.804;2024-03-02T06:16:07;7.20;99.90
8910;DHT22;4490;49.072;8.804;2024-03-02T06:18:34;7.20;99.90
8910;DHT22;4490;49.072;8.804;2024-03-02T06:20:59;7.20;99.90
8910;DHT22;4490;49.072;8.804;2024-03-02T06:23:26;7.20;99.90
8910;DHT22;4490;49.072;8.804;2024-03-02T06:25:52;7.20;99.90
8910;DHT22;4490;49.072;8.804;2024-03-02T06:28:18;7.20;99.90
8910;DHT22;4490;49.072;8.804;2024-03-02T06:30:44;7.20;99.90
8910;DHT22;4490;49.072;8.804;2024-03-02T06:33:10;7.20;99.90
8910;DHT22;4490;49.072;8.804;2024-03-02T06:35:36;7.10;99.90
8910;DHT22;4490;49.072;8.804;2024-03-02T06:38:01;7.10;99.90
8910;DHT22;4490;49.072;8.804;2024-03-02T06:40:29;7.10;99.90
8910;DHT22;4490;49.072;8.804;2024-03-02T06:42:54;7.10;99.90
8910;DHT22;4490;49.072;8.804;2024-03-02T06:45:20;7.00;99.90
8910;DHT22;4490;49.072;8.804;2024-03-02T06:47:46;7.00;99.90
8910;DHT22;4490;49.072;8.804;2024-03-02T06:50:11;7.00;99.90
8910;DHT22;4490;49.072;8.804;2024-03-02T06:52:37;7.00;99.90
8910;DHT22;4490;49.072;8.804;2024-03-02T06:55:04;7.00;99.90
8910;DHT22;4490;49.072;8.804;2024-03-02T06:57:30;7.00;99.90
8910;DHT22;4490;49.072;8.804;2024-03-02T06:59:56;7.10;99.90
8910;DHT22;4490;49.072;8.804;2024-03-02T07:02:24;7.10;99.90
8910;DHT22;4490;49.072;8.804;2024-03-02T07:04:52;7.20;99.90
8910;DHT22;4490;49.072;8.804;2024-03-02T07:07:18;7.20;99.90
8910;DHT22;4490;49.072;8.804;2024-03-02T07:09:43;7.20;99.90
8910;DHT22;4490;49.072;8.804;2024-03-02T07:12:09;7.30;99.90
8910;DHT22;4490;49.072;8.804;2024-03-02T07:14:35;7.30;99.90
8910;DHT22;4490;49.072;8.804;2024-03-02T07:17:33;7.40;99.90
8910;DHT22;4490;49.072;8.804;2024-03-02T07:19:59;7.40;99.90
8910;DHT22;4490;49.072;8.804;2024-03-02T07:22:25;7.40;99.90
8910;DHT22;4490;49.072;8.804;2024-03-02T07:24:51;7.40;99.90
8910;DHT22;4490;49.072;8.804;2024-03-02T07:27:17;7.50;99.90
8910;DHT22;4490;49.072;8.804;2024-03-02T07:29:43;7.50;99.90
8910;DHT22;4490;49.072;8.804;2024-03-02T07:32:09;7.50;99.90
8910;DHT22;4490;49.072;8.804;2024-03-02T07:34:35;7.50;99.90
8910;DHT22;4490;49.072;8.804;2024-03-02T07:37:01;7.60;99.90
8910;DHT22;4490;49.072;8.804;2024-03-02T07:39:27;7.60;99.90
8910;DHT22;4490;49.072;8.804;2024-03-02T07:41:53;7.70;99.90
8910;DHT22;4490;49.072;8.804;2024-03-02T07:44:19;7.70;99.90
8910;DHT22;4490;49.072;8.804;2024-03-02T07:46:46;7.80;99.90
8910;DHT22;4490;49.072;8.804;2024-03-02T07:49:20;7.90;99.90
8910;DHT22;4490;49.072;8.804;2024-03-02T07:51:46;8.00;99.90
8910;DHT22;4490;49.072;8.804;2024-03-02T07:54:12;8.10;99.90
8910;DHT22;4490;49.072;8.804;2024-03-02T07:56:37;8.30;99.90
8910;DHT22;4490;49.072;8.804;2024-03-02T07:59:04;8.60;99.90
8910;DHT22;4490;49.072;8.804;2024-03-02T08:01:30;9.20;99.90
8910;DHT22;4490;49.072;8.804;2024-03-02T08:04:00;10.00;99.90
8910;DHT22;4490;49.072;8.804;2024-03-02T08:06:26;10.90;99.90
8910;DHT22;4490;49.072;8.804;2024-03-02T08:08:56;11.80;99.40
8910;DHT22;4490;49.072;8.804;2024-03-02T08:11:22;12.60;95.30
8910;DHT22;4490;49.072;8.804;2024-03-02T08:13:48;13.20;92.60
8910;DHT22;4490;49.072;8.804;2024-03-02T08:16:17;13.70;91.50
8910;DHT22;4490;49.072;8.804;2024-03-02T08:18:50;14.20;90.20
8910;DHT22;4490;49.072;8.804;2024-03-02T08:21:16;14.60;87.50
8910;DHT22;4490;49.072;8.804;2024-03-02T08:23:43;15.00;85.40
8910;DHT22;4490;49.072;8.804;2024-03-02T08:26:09;15.60;83.80
8910;DHT22;4490;49.072;8.804;2024-03-02T08:28:35;16.00;82.20
8910;DHT22;4490;49.072;8.804;2024-03-02T08:31:06;16.30;80.60
8910;DHT22;4490;49.072;8.804;2024-03-02T08:33:31;16.70;78.90
8910;DHT22;4490;49.072;8.804;2024-03-02T08:35:57;16.80;77.70
8910;DHT22;4490;49.072;8.804;2024-03-02T08:38:23;16.90;77.10
8910;DHT22;4490;49.072;8.804;2024-03-02T08:40:49;17.30;76.30
8910;DHT22;4490;49.072;8.804;2024-03-02T08:43:15;17.70;75.50
8910;DHT22;4490;49.072;8.804;2024-03-02T08:45:41;18.00;73.10
8910;DHT22;4490;49.072;8.804;2024-03-02T08:48:09;18.50;73.10
8910;DHT22;4490;49.072;8.804;2024-03-02T08:50:35;19.10;72.10
8910;DHT22;4490;49.072;8.804;2024-03-02T08:53:02;19.40;69.20
8910;DHT22;4490;49.072;8.804;2024-03-02T08:55:27;19.60;69.00
8910;DHT22;4490;49.072;8.804;2024-03-02T08:57:53;19.60;68.70
8910;DHT22;4490;49.072;8.804;2024-03-02T09:00:19;19.70;67.20
8910;DHT22;4490;49.072;8.804;2024-03-02T09:02:45;19.50;66.90
8910;DHT22;4490;49.072;8.804;2024-03-02T09:05:11;19.00;66.90
8910;DHT22;4490;49.072;8.804;2024-03-02T09:07:37;18.20;65.60
8910;DHT22;4490;49.072;8.804;2024-03-02T09:10:05;17.30;67.00
8910;DHT22;4490;49.072;8.804;2024-03-02T09:12:30;16.60;68.70
8910;DHT22;4490;49.072;8.804;2024-03-02T09:14:56;15.90;69.50
8910;DHT22;4490;49.072;8.804;2024-03-02T09:17:22;15.50;70.70
8910;DHT22;4490;49.072;8.804;2024-03-02T09:19:48;15.10;71.70
8910;DHT22;4490;49.072;8.804;2024-03-02T09:22:14;14.70;72.60
8910;DHT22;4490;49.072;8.804;2024-03-02T09:24:39;14.50;73.00
8910;DHT22;4490;49.072;8.804;2024-03-02T09:27:05;14.20;72.60
8910;DHT22;4490;49.072;8.804;2024-03-02T09:29:31;14.10;73.70
8910;DHT22;4490;49.072;8.804;2024-03-02T09:31:56;13.90;74.30
8910;DHT22;4490;49.072;8.804;2024-03-02T09:34:22;13.80;75.30
8910;DHT22;4490;49.072;8.804;2024-03-02T09:36:48;13.70;75.80
8910;DHT22;4490;49.072;8.804;2024-03-02T09:39:14;13.60;76.40
8910;DHT22;4490;49.072;8.804;2024-03-02T09:41:39;13.50;77.10
8910;DHT22;4490;49.072;8.804;2024-03-02T09:44:06;13.50;76.60
8910;DHT22;4490;49.072;8.804;2024-03-02T09:46:31;13.50;76.60
8910;DHT22;4490;49.072;8.804;2024-03-02T09:48:57;13.40;76.00
8910;DHT22;4490;49.072;8.804;2024-03-02T09:51:23;13.40;76.60
8910;DHT22;4490;49.072;8.804;2024-03-02T09:53:49;13.40;76.70
8910;DHT22;4490;49.072;8.804;2024-03-02T09:56:15;13.40;77.20
8910;DHT22;4490;49.072;8.804;2024-03-02T09:58:44;13.40;77.00
8910;DHT22;4490;49.072;8.804;2024-03-02T10:01:10;13.40;76.80
8910;DHT22;4490;49.072;8.804;2024-03-02T10:03:37;13.40;76.50
8910;DHT22;4490;49.072;8.804;2024-03-02T10:08:47;13.50;76.70
8910;DHT22;4490;49.072;8.804;2024-03-02T10:11:34;13.60;77.40
8910;DHT22;4490;49.072;8.804;2024-03-02T10:14:08;13.70;77.40
8910;DHT22;4490;49.072;8.804;2024-03-02T10:16:35;13.80;77.80
8910;DHT22;4490;49.072;8.804;2024-03-02T10:19:15;14.00;77.20
8910;DHT22;4490;49.072;8.804;2024-03-02T10:21:43;14.30;76.10
8910;DHT22;4490;49.072;8.804;2024-03-02T10:24:08;14.50;75.60
8910;DHT22;4490;49.072;8.804;2024-03-02T10:26:34;14.70;76.00
8910;DHT22;4490;49.072;8.804;2024-03-02T10:28:59;15.00;76.70
8910;DHT22;4490;49.072;8.804;2024-03-02T10:31:26;15.20;75.50
8910;DHT22;4490;49.072;8.804;2024-03-02T10:33:54;15.30;75.70
8910;DHT22;4490;49.072;8.804;2024-03-02T10:36:20;15.50;75.70
8910;DHT22;4490;49.072;8.804;2024-03-02T10:38:47;15.60;75.90
8910;DHT22;4490;49.072;8.804;2024-03-02T10:41:23;15.70;75.70
8910;DHT22;4490;49.072;8.804;2024-03-02T10:43:52;15.80;74.80
8910;DHT22;4490;49.072;8.804;2024-03-02T10:46:31;15.90;74.70
8910;DHT22;4490;49.072;8.804;2024-03-02T10:48:57;16.10;74.80
8910;DHT22;4490;49.072;8.804;2024-03-02T10:51:28;16.20;74.30
8910;DHT22;4490;49.072;8.804;2024-03-02T10:53:58;16.30;73.70
8910;DHT22;4490;49.072;8.804;2024-03-02T10:56:31;16.30;73.60
8910;DHT22;4490;49.072;8.804;2024-03-02T11:01:39;16.60;74.00
8910;DHT22;4490;49.072;8.804;2024-03-02T11:04:08;16.70;74.00
8910;DHT22;4490;49.072;8.804;2024-03-02T11:06:35;16.90;73.80
8910;DHT22;4490;49.072;8.804;2024-03-02T11:09:06;17.00;73.40
8910;DHT22;4490;49.072;8.804;2024-03-02T11:11:37;17.10;73.60
8910;DHT22;4490;49.072;8.804;2024-03-02T11:14:07;17.20;73.10
8910;DHT22;4490;49.072;8.804;2024-03-02T11:16:38;17.30;71.10
8910;DHT22;4490;49.072;8.804;2024-03-02T11:19:14;17.40;71.50
8910;DHT22;4490;49.072;8.804;2024-03-02T11:21:41;17.40;71.00
8910;DHT22;4490;49.072;8.804;2024-03-02T11:26:51;17.60;71.50
8910;DHT22;4490;49.072;8.804;2024-03-02T11:32:02;17.90;71.80
8910;DHT22;4490;49.072;8.804;2024-03-02T11:34:32;18.00;71.60
8910;DHT22;4490;49.072;8.804;2024-03-02T11:36:58;18.10;71.40
8910;DHT22;4490;49.072;8.804;2024-03-02T11:39:28;18.20;70.60
8910;DHT22;4490;49.072;8.804;2024-03-02T11:41:57;18.30;70.00
8910;DHT22;4490;49.072;8.804;2024-03-02T11:44:28;18.50;70.40
8910;DHT22;4490;49.072;8.804;2024-03-02T11:49:44;18.90;69.50
8910;DHT22;4490;49.072;8.804;2024-03-02T11:52:12;19.00;68.60
8910;DHT22;4490;49.072;8.804;2024-03-02T11:54:39;19.20;69.10
8910;DHT22;4490;49.072;8.804;2024-03-02T11:57:06;19.40;69.10
8910;DHT22;4490;49.072;8.804;2024-03-02T11:59:32;19.50;68.90
8910;DHT22;4490;49.072;8.804;2024-03-02T12:01:59;19.50;66.80
8910;DHT22;4490;49.072;8.804;2024-03-02T12:04:25;19.60;66.60
8910;DHT22;4490;49.072;8.804;2024-03-02T12:06:59;19.60;64.90
8910;DHT22;4490;49.072;8.804;2024-03-02T12:09:28;19.70;65.30
8910;DHT22;4490;49.072;8.804;2024-03-02T12:12:08;19.70;65.10
8910;DHT22;4490;49.072;8.804;2024-03-02T12:14:36;20.00;63.50
8910;DHT22;4490;49.072;8.804;2024-03-02T12:17:02;20.10;65.70
8910;DHT22;4490;49.072;8.804;2024-03-02T12:19:29;20.20;64.30
8910;DHT22;4490;49.072;8.804;2024-03-02T12:21:56;20.30;62.50
8910;DHT22;4490;49.072;8.804;2024-03-02T12:24:22;20.30;61.80
8910;DHT22;4490;49.072;8.804;2024-03-02T12:26:51;20.40;62.10
8910;DHT22;4490;49.072;8.804;2024-03-02T12:29:19;20.50;62.50
8910;DHT22;4490;49.072;8.804;2024-03-02T12:31:45;20.60;62.80
8910;DHT22;4490;49.072;8.804;2024-03-02T12:34:13;20.70;63.50
8910;DHT22;4490;49.072;8.804;2024-03-02T12:36:39;20.80;62.90
8910;DHT22;4490;49.072;8.804;2024-03-02T12:39:09;20.90;62.50
8910;DHT22;4490;49.072;8.804;2024-03-02T12:41:38;21.00;63.20
8910;DHT22;4490;49.072;8.804;2024-03-02T12:44:05;21.00;61.80
8910;DHT22;4490;49.072;8.804;2024-03-02T12:46:31;21.10;61.70
8910;DHT22;4490;49.072;8.804;2024-03-02T12:49:05;21.20;61.40
8910;DHT22;4490;49.072;8.804;2024-03-02T12:51:32;21.40;60.60
8910;DHT22;4490;49.072;8.804;2024-03-02T12:53:58;21.60;59.90
8910;DHT22;4490;49.072;8.804;2024-03-02T12:56:27;21.70;58.90
8910;DHT22;4490;49.072;8.804;2024-03-02T12:58:57;21.80;58.60
8910;DHT22;4490;49.072;8.804;2024-03-02T13:01:23;21.90;58.60
8910;DHT22;4490;49.072;8.804;2024-03-02T13:03:49;21.90;58.70
8910;DHT22;4490;49.072;8.804;2024-03-02T13:06:18;22.00;58.40
8910;DHT22;4490;49.072;8.804;2024-03-02T13:08:45;22.10;58.50
8910;DHT22;4490;49.072;8.804;2024-03-02T13:11:12;22.10;58.50
8910;DHT22;4490;49.072;8.804;2024-03-02T13:13:39;22.30;57.70
8910;DHT22;4490;49.072;8.804;2024-03-02T13:16:11;22.40;57.00
8910;DHT22;4490;49.072;8.804;2024-03-02T13:18:41;22.50;57.10
8910;DHT22;4490;49.072;8.804;2024-03-02T13:21:07;22.60;56.50
8910;DHT22;4490;49.072;8.804;2024-03-02T13:23:33;22.50;56.70
8910;DHT22;4490;49.072;8.804;2024-03-02T13:25:58;22.50;56.30
8910;DHT22;4490;49.072;8.804;2024-03-02T13:28:25;22.40;56.20
8910;DHT22;4490;49.072;8.804;2024-03-02T13:30:50;22.40;56.60
8910;DHT22;4490;49.072;8.804;2024-03-02T13:33:16;22.30;55.90
8910;DHT22;4490;49.072;8.804;2024-03-02T13:35:50;22.00;55.60
8910;DHT22;4490;49.072;8.804;2024-03-02T13:38:17;21.70;56.30
8910;DHT22;4490;49.072;8.804;2024-03-02T13:40:43;21.50;56.80
8910;DHT22;4490;49.072;8.804;2024-03-02T13:43:09;21.40;57.00
8910;DHT22;4490;49.072;8.804;2024-03-02T13:45:34;21.50;57.00
8910;DHT22;4490;49.072;8.804;2024-03-02T13:48:02;21.60;57.10
8910;DHT22;4490;49.072;8.804;2024-03-02T13:50:28;21.80;57.40
8910;DHT22;4490;49.072;8.804;2024-03-02T13:52:55;21.90;56.00
8910;DHT22;4490;49.072;8.804;2024-03-02T13:55:22;21.90;56.30
8910;DHT22;4490;49.072;8.804;2024-03-02T13:57:47;21.90;56.30
8910;DHT22;4490;49.072;8.804;2024-03-02T14:00:16;22.00;56.20
8910;DHT22;4490;49.072;8.804;2024-03-02T14:02:43;22.00;56.20
8910;DHT22;4490;49.072;8.804;2024-03-02T14:05:08;22.10;55.90
8910;DHT22;4490;49.072;8.804;2024-03-02T14:07:41;22.10;56.00
8910;DHT22;4490;49.072;8.804;2024-03-02T14:10:07;22.10;56.10
8910;DHT22;4490;49.072;8.804;2024-03-02T14:12:33;22.10;56.10
8910;DHT22;4490;49.072;8.804;2024-03-02T14:14:59;22.20;56.20
8910;DHT22;4490;49.072;8.804;2024-03-02T14:17:26;22.10;56.00
8910;DHT22;4490;49.072;8.804;2024-03-02T14:19:52;22.00;56.00
8910;DHT22;4490;49.072;8.804;2024-03-02T14:22:19;21.80;56.30
8910;DHT22;4490;49.072;8.804;2024-03-02T14:24:45;21.60;55.60
8910;DHT22;4490;49.072;8.804;2024-03-02T14:27:11;21.50;55.70
8910;DHT22;4490;49.072;8.804;2024-03-02T14:29:39;21.20;56.60
8910;DHT22;4490;49.072;8.804;2024-03-02T14:32:06;21.00;56.90
8910;DHT22;4490;49.072;8.804;2024-03-02T14:34:31;20.90;57.40
8910;DHT22;4490;49.072;8.804;2024-03-02T14:36:57;20.90;57.80
8910;DHT22;4490;49.072;8.804;2024-03-02T14:39:22;21.00;57.70
8910;DHT22;4490;49.072;8.804;2024-03-02T14:41:48;21.10;57.60
8910;DHT22;4490;49.072;8.804;2024-03-02T14:44:14;21.30;57.90
8910;DHT22;4490;49.072;8.804;2024-03-02T14:46:40;21.50;58.30
8910;DHT22;4490;49.072;8.804;2024-03-02T14:49:07;21.80;57.70
8910;DHT22;4490;49.072;8.804;2024-03-02T14:51:33;21.90;57.30
8910;DHT22;4490;49.072;8.804;2024-03-02T14:53:58;22.10;56.10
8910;DHT22;4490;49.072;8.804;2024-03-02T14:56:24;22.20;55.70
8910;DHT22;4490;49.072;8.804;2024-03-02T14:58:50;22.10;55.60
8910;DHT22;4490;49.072;8.804;2024-03-02T15:01:16;22.10;55.20
8910;DHT22;4490;49.072;8.804;2024-03-02T15:03:42;22.00;54.90
8910;DHT22;4490;49.072;8.804;2024-03-02T15:06:08;21.90;55.20
8910;DHT22;4490;49.072;8.804;2024-03-02T15:08:35;21.90;55.80
8910;DHT22;4490;49.072;8.804;2024-03-02T15:11:01;21.90;56.40
8910;DHT22;4490;49.072;8.804;2024-03-02T15:13:27;21.80;56.20
8910;DHT22;4490;49.072;8.804;2024-03-02T15:15:53;21.70;56.60
8910;DHT22;4490;49.072;8.804;2024-03-02T15:18:19;21.50;56.90
8910;DHT22;4490;49.072;8.804;2024-03-02T15:20:45;21.30;56.20
8910;DHT22;4490;49.072;8.804;2024-03-02T15:23:10;21.00;56.40
8910;DHT22;4490;49.072;8.804;2024-03-02T15:25:36;20.70;56.20
8910;DHT22;4490;49.072;8.804;2024-03-02T15:28:02;20.40;57.10
8910;DHT22;4490;49.072;8.804;2024-03-02T15:30:28;20.10;57.70
8910;DHT22;4490;49.072;8.804;2024-03-02T15:32:54;19.80;57.70
8910;DHT22;4490;49.072;8.804;2024-03-02T15:35:19;19.50;58.10
8910;DHT22;4490;49.072;8.804;2024-03-02T15:37:45;19.20;58.40
8910;DHT22;4490;49.072;8.804;2024-03-02T15:40:11;19.00;58.60
8910;DHT22;4490;49.072;8.804;2024-03-02T15:42:37;18.70;58.70
8910;DHT22;4490;49.072;8.804;2024-03-02T15:45:03;18.50;59.00
8910;DHT22;4490;49.072;8.804;2024-03-02T15:47:30;18.40;59.10
8910;DHT22;4490;49.072;8.804;2024-03-02T15:49:56;18.20;59.10
8910;DHT22;4490;49.072;8.804;2024-03-02T15:52:21;18.10;59.10
8910;DHT22;4490;49.072;8.804;2024-03-02T15:54:48;18.00;58.70
8910;DHT22;4490;49.072;8.804;2024-03-02T15:57:14;17.80;58.70
8910;DHT22;4490;49.072;8.804;2024-03-02T15:59:40;17.80;59.30
8910;DHT22;4490;49.072;8.804;2024-03-02T16:02:06;17.70;59.70
8910;DHT22;4490;49.072;8.804;2024-03-02T16:04:31;17.50;59.80
8910;DHT22;4490;49.072;8.804;2024-03-02T16:06:57;17.50;60.00
8910;DHT22;4490;49.072;8.804;2024-03-02T16:09:22;17.40;60.30
8910;DHT22;4490;49.072;8.804;2024-03-02T16:11:48;17.30;60.70
8910;DHT22;4490;49.072;8.804;2024-03-02T16:14:14;17.20;61.00
8910;DHT22;4490;49.072;8.804;2024-03-02T16:16:40;17.20;61.50
8910;DHT22;4490;49.072;8.804;2024-03-02T16:19:05;17.10;61.70
8910;DHT22;4490;49.072;8.804;2024-03-02T16:21:31;17.00;61.90
8910;DHT22;4490;49.072;8.804;2024-03-02T16:23:57;17.00;62.30